Franklinton, NC

10:34 AM EDT on April 27, 2015 (GMT -0400)
Wilton | | Change Station
CLOSE
Current Station
Personal Weather Station
Location: Franklinton, NC
Elevation: 520 ft
Nearby Weather Stations

Elev 520 ft 36.12 °N, 78.54 °W | Updated 17 seconds ago

Clear
Clear
56.9 °F
Feels Like 56.9 °F
N
11.5
Wind Variable Wind from NE
Gusts 11.5 mph

Today
High -- | Low -- °F
--% Chance of Precip.
Yesterday
High -- | Low -- °F
Precip. -- in
6:26 AM 7:57 PM
Waxing Gibbous, 65% visible
Pressure 29.83 in
Visibility 10.0 miles
Clouds Clear
Dew Point 39 °F
Humidity 52%
Rainfall 0.00 in
Snow Depth Not available.
UV 5 out of 12
Pollen 7.20 out of 12
Air Quality Not available.
Flu Activity Sporadic
METAR KLHZ 271355Z AUTO 32006KT 10SM CLR 12/06 A2983 RMK AO2

More Conditions Fewer Conditions

Pressure 29.83 in
Visibility 10.0 miles
Clouds Clear
Dew Point 39 °F
Humidity 52%
Rainfall 0.00 in
Snow Depth Not available.
UV 5 out of 12
Pollen 7.20 out of 12
Air Quality Not available.
Flu Activity Sporadic
METAR KLHZ 271355Z AUTO 32006KT 10SM CLR 12/06 A2983 RMK AO2

More Conditions Fewer Conditions

10-Day Weather Forecast

Almanac

Astronomy

Apr. 27, 2015 Rise Set
Actual Time
Civil Twilight
Nautical Twilight
Astronomical Twilight
Moon
Length of Visible Light
Length of Day
Tomorrow will be .
, % of the Moon is Illuminated

Today's Extremes

State Highs State Lows

Community

WunderPhotos

Upload Photos

1,817,320 photos uploaded!

WunderBlogs® & News

Nearby

Air Quality

  Air Quality AQ Index Pollutant
Not available.

Snow Depth

Station Depth Elevation

Earthquake Activity

City Distance Mag. Time & Date
Minimum magnitude displayed is 2.5.

Coastal Water Temperatures

Place Temperature

Stations

Nearby Weather Stations

Station Location Temp. Windchill Dew Point Humidity Wind Precip. Elev Updated Type